Time;durP1;ratioP1;P1;durP2;ratioP2;P2;SDS_P1;SDS_P2;PMS_P1;PMS_P2;Temp;Humidity;BMP_temperature;BMP_pressure;BME280_temperature;BME280_humidity;BME280_pressure;Samples;Min_cycle;Max_cycle;Signal;HPM_P1;HPM_P2
2023/08/02 00:00:33;;;;;;;8.93;2.10;;;;;;;;;;5049889;28;20049;-71
2023/08/02 00:03:00;;;;;;;2.72;1.98;;;;;;;;;;5049772;28;20135;-71
2023/08/02 00:05:27;;;;;;;2.75;1.85;;;;;;;;;;5049969;28;20048;-71
2023/08/02 00:07:53;;;;;;;3.50;1.60;;;;;;;;;;5049692;28;20397;-69
2023/08/02 00:10:20;;;;;;;4.15;1.90;;;;;;;;;;5050097;28;20494;-70
2023/08/02 00:12:46;;;;;;;3.22;1.75;;;;;;;;;;5049840;28;20060;-70
2023/08/02 00:15:14;;;;;;;2.58;1.90;;;;;;;;;;5050417;28;20067;-70
2023/08/02 00:17:41;;;;;;;3.42;1.73;;;;;;;;;;5049764;28;20049;-70
2023/08/02 00:20:09;;;;;;;4.35;2.00;;;;;;;;;;5049451;28;20091;-70
2023/08/02 00:22:35;;;;;;;3.95;1.92;;;;;;;;;;5050100;28;20041;-70
2023/08/02 00:25:02;;;;;;;3.17;2.00;;;;;;;;;;5050547;28;20140;-70
2023/08/02 00:27:29;;;;;;;3.38;1.80;;;;;;;;;;5050045;28;20323;-69
2023/08/02 00:29:55;;;;;;;2.83;1.70;;;;;;;;;;5049662;28;20049;-70
2023/08/02 00:32:23;;;;;;;2.65;1.60;;;;;;;;;;5049643;28;20048;-70
2023/08/02 00:34:54;;;;;;;3.70;1.83;;;;;;;;;;5049839;28;20489;-70
2023/08/02 00:37:21;;;;;;;3.38;2.20;;;;;;;;;;5050139;28;20087;-70
2023/08/02 00:39:50;;;;;;;5.32;1.90;;;;;;;;;;5049731;28;20413;-70
2023/08/02 00:42:17;;;;;;;3.53;1.92;;;;;;;;;;5049984;28;20308;-70
2023/08/02 00:44:44;;;;;;;3.92;1.67;;;;;;;;;;5049345;28;20051;-70
2023/08/02 00:47:10;;;;;;;3.20;1.88;;;;;;;;;;5049778;28;20045;-69
2023/08/02 00:49:38;;;;;;;2.78;1.80;;;;;;;;;;5048677;28;20071;-71
2023/08/02 00:52:06;;;;;;;6.75;2.30;;;;;;;;;;5049778;28;20067;-71
2023/08/02 00:54:33;;;;;;;2.63;2.13;;;;;;;;;;5049268;28;20533;-70
2023/08/02 00:57:00;;;;;;;5.57;1.85;;;;;;;;;;5049420;28;20303;-70
2023/08/02 00:59:26;;;;;;;3.83;1.88;;;;;;;;;;5048978;28;20045;-71
2023/08/02 01:01:53;;;;;;;3.72;2.13;;;;;;;;;;5049802;28;20053;-70
2023/08/02 01:04:20;;;;;;;3.85;2.10;;;;;;;;;;5049192;28;20045;-70
2023/08/02 01:06:52;;;;;;;4.63;2.00;;;;;;;;;;5051158;28;20049;-70
2023/08/02 01:09:25;;;;;;;4.57;2.10;;;;;;;;;;5052659;28;20049;-70
2023/08/02 01:11:58;;;;;;;3.58;2.00;;;;;;;;;;5053123;28;20509;-69
2023/08/02 01:14:26;;;;;;;4.43;2.00;;;;;;;;;;5052290;28;20049;-70
2023/08/02 01:16:53;;;;;;;2.95;2.00;;;;;;;;;;5053287;28;20067;-71
2023/08/02 01:19:21;;;;;;;4.72;1.90;;;;;;;;;;5053066;28;20052;-70
2023/08/02 01:21:50;;;;;;;3.75;2.17;;;;;;;;;;5052538;28;20075;-70
2023/08/02 01:24:16;;;;;;;4.53;2.03;;;;;;;;;;5053055;28;20049;-70
2023/08/02 01:26:48;;;;;;;4.10;2.17;;;;;;;;;;5052327;28;20053;-71
2023/08/02 01:29:19;;;;;;;3.70;2.08;;;;;;;;;;5052890;28;20060;-71
2023/08/02 01:31:45;;;;;;;5.90;2.05;;;;;;;;;;5052163;28;20049;-68
2023/08/02 01:34:12;;;;;;;3.72;2.20;;;;;;;;;;5053439;28;20498;-68
2023/08/02 01:36:39;;;;;;;6.13;2.20;;;;;;;;;;5053133;28;20188;-71
2023/08/02 01:39:08;;;;;;;8.05;2.42;;;;;;;;;;5052599;28;20045;-70
2023/08/02 01:41:35;;;;;;;3.70;2.17;;;;;;;;;;5051475;28;20053;-68
2023/08/02 01:44:01;;;;;;;3.92;2.50;;;;;;;;;;5052690;28;20049;-71
2023/08/02 01:46:28;;;;;;;2.88;2.17;;;;;;;;;;5052274;28;20045;-69
2023/08/02 01:48:54;;;;;;;3.50;2.33;;;;;;;;;;5052419;28;20128;-68
2023/08/02 01:51:21;;;;;;;7.35;2.53;;;;;;;;;;5051920;28;20041;-68
2023/08/02 01:53:49;;;;;;;4.15;2.15;;;;;;;;;;5052094;28;20543;-70
2023/08/02 01:56:17;;;;;;;4.55;2.45;;;;;;;;;;5051770;28;20333;-71
2023/08/02 01:58:44;;;;;;;4.80;2.40;;;;;;;;;;5052026;28;20132;-71
2023/08/02 02:01:10;;;;;;;5.47;2.55;;;;;;;;;;5051842;28;20421;-69
2023/08/02 02:03:37;;;;;;;5.82;2.88;;;;;;;;;;5051691;28;20144;-69
2023/08/02 02:06:03;;;;;;;5.00;2.42;;;;;;;;;;5052180;28;20048;-70
2023/08/02 02:08:30;;;;;;;5.38;2.60;;;;;;;;;;5051398;28;20174;-70
2023/08/02 02:10:57;;;;;;;2.30;2.10;;;;;;;;;;5051662;28;20067;-69
2023/08/02 02:13:26;;;;;;;6.07;2.63;;;;;;;;;;5051581;28;20067;-68
2023/08/02 02:15:52;;;;;;;5.32;2.60;;;;;;;;;;5051808;28;20049;-68
2023/08/02 02:18:19;;;;;;;6.38;2.53;;;;;;;;;;5051269;28;20056;-69
2023/08/02 02:20:45;;;;;;;4.82;2.55;;;;;;;;;;5051275;28;20051;-70
2023/08/02 02:23:12;;;;;;;3.03;2.20;;;;;;;;;;5051062;28;20049;-70
2023/08/02 02:25:38;;;;;;;3.20;2.47;;;;;;;;;;5051791;28;20044;-70
2023/08/02 02:28:05;;;;;;;6.05;2.70;;;;;;;;;;5051290;28;20837;-70
2023/08/02 02:30:33;;;;;;;3.85;2.28;;;;;;;;;;5051389;28;20045;-70
2023/08/02 02:33:00;;;;;;;5.53;3.00;;;;;;;;;;5050938;28;20067;-70
2023/08/02 02:35:27;;;;;;;3.92;2.42;;;;;;;;;;5051772;28;20048;-71
2023/08/02 02:37:54;;;;;;;3.55;2.30;;;;;;;;;;5051435;28;20463;-69
2023/08/02 02:40:20;;;;;;;7.00;2.70;;;;;;;;;;5051328;28;20049;-70
2023/08/02 02:42:47;;;;;;;6.65;2.58;;;;;;;;;;5051788;28;20048;-70
2023/08/02 02:45:14;;;;;;;7.20;2.65;;;;;;;;;;5051167;28;20051;-70
2023/08/02 02:47:42;;;;;;;6.57;3.00;;;;;;;;;;5051462;28;20075;-71
2023/08/02 02:50:09;;;;;;;5.32;3.28;;;;;;;;;;5049846;28;20051;-71
2023/08/02 02:52:35;;;;;;;6.07;2.50;;;;;;;;;;5051602;28;20071;-70
2023/08/02 02:55:02;;;;;;;4.53;2.30;;;;;;;;;;5051067;28;20147;-70
2023/08/02 02:57:29;;;;;;;3.83;2.13;;;;;;;;;;5051271;28;20485;-71
2023/08/02 02:59:55;;;;;;;4.70;2.25;;;;;;;;;;5050548;28;20045;-71
2023/08/02 03:02:22;;;;;;;5.00;2.35;;;;;;;;;;5051276;28;20049;-70
2023/08/02 03:04:50;;;;;;;5.78;2.42;;;;;;;;;;5050293;28;20121;-70
2023/08/02 03:07:17;;;;;;;5.82;2.50;;;;;;;;;;5050981;28;20041;-70
2023/08/02 03:09:43;;;;;;;3.97;2.65;;;;;;;;;;5050362;28;20088;-70
2023/08/02 03:12:10;;;;;;;3.72;2.50;;;;;;;;;;5050907;28;20047;-70
2023/08/02 03:14:36;;;;;;;6.38;2.60;;;;;;;;;;5050722;28;20047;-70
2023/08/02 03:17:03;;;;;;;4.35;2.58;;;;;;;;;;5051042;28;20041;-70
2023/08/02 03:19:29;;;;;;;5.07;2.58;;;;;;;;;;5050234;28;20045;-71
2023/08/02 03:21:57;;;;;;;5.50;2.50;;;;;;;;;;5050688;28;20049;-70
2023/08/02 03:24:24;;;;;;;5.32;2.30;;;;;;;;;;5051041;28;20044;-71
2023/08/02 03:26:51;;;;;;;5.88;2.40;;;;;;;;;;5050237;28;20049;-71
2023/08/02 03:29:17;;;;;;;3.67;2.40;;;;;;;;;;5050417;28;20056;-70
2023/08/02 03:31:44;;;;;;;3.85;2.40;;;;;;;;;;5049776;28;20055;-70
2023/08/02 03:34:11;;;;;;;5.40;2.70;;;;;;;;;;5050868;28;20076;-70
2023/08/02 03:36:37;;;;;;;6.32;3.20;;;;;;;;;;5050127;28;20055;-71
2023/08/02 03:39:05;;;;;;;3.80;2.60;;;;;;;;;;5050128;28;20055;-71
2023/08/02 03:41:32;;;;;;;5.25;2.72;;;;;;;;;;5049448;28;20067;-70
2023/08/02 03:43:59;;;;;;;5.18;2.88;;;;;;;;;;5050517;28;20048;-71
2023/08/02 03:46:25;;;;;;;5.10;2.55;;;;;;;;;;5049931;28;20051;-70
2023/08/02 03:48:52;;;;;;;6.05;2.88;;;;;;;;;;5050547;28;20060;-70
2023/08/02 03:51:19;;;;;;;4.65;2.55;;;;;;;;;;5050070;28;20051;-70
2023/08/02 03:53:45;;;;;;;6.28;2.58;;;;;;;;;;5050015;28;20414;-69
2023/08/02 03:56:13;;;;;;;9.07;2.67;;;;;;;;;;5050484;28;20414;-70
2023/08/02 03:58:40;;;;;;;5.00;2.50;;;;;;;;;;5049794;28;20041;-70
2023/08/02 04:01:06;;;;;;;3.75;2.70;;;;;;;;;;5049666;28;20053;-70
2023/08/02 04:03:33;;;;;;;4.82;2.47;;;;;;;;;;5053894;22;20140;-69
2023/08/02 04:05:59;;;;;;;6.15;2.75;;;;;;;;;;5030326;28;20045;-69
2023/08/02 04:08:26;;;;;;;6.03;2.38;;;;;;;;;;5029678;28;20045;-69
2023/08/02 04:10:53;;;;;;;4.47;2.38;;;;;;;;;;5029556;28;20116;-69
2023/08/02 04:13:20;;;;;;;4.10;1.92;;;;;;;;;;5029498;28;20045;-69
2023/08/02 04:15:47;;;;;;;4.20;2.30;;;;;;;;;;5029634;28;20049;-69
2023/08/02 04:18:14;;;;;;;5.05;2.20;;;;;;;;;;5029390;28;20080;-70
2023/08/02 04:20:40;;;;;;;4.07;2.00;;;;;;;;;;5029500;28;20049;-69
2023/08/02 04:23:07;;;;;;;3.30;2.00;;;;;;;;;;5029769;28;20049;-69
2023/08/02 04:25:33;;;;;;;5.20;2.60;;;;;;;;;;5029583;28;20072;-68
2023/08/02 04:28:00;;;;;;;4.35;2.40;;;;;;;;;;5029513;28;20407;-70
2023/08/02 04:30:28;;;;;;;5.30;2.65;;;;;;;;;;5029242;28;20136;-68
2023/08/02 04:32:55;;;;;;;4.13;2.10;;;;;;;;;;5029760;28;20056;-68
2023/08/02 04:35:21;;;;;;;4.38;2.20;;;;;;;;;;5029201;28;20085;-69
2023/08/02 04:37:48;;;;;;;4.18;2.50;;;;;;;;;;5029634;28;20041;-69
2023/08/02 04:40:15;;;;;;;6.13;2.88;;;;;;;;;;5029739;28;20056;-70
2023/08/02 04:42:42;;;;;;;5.15;2.30;;;;;;;;;;5033020;28;20103;-68
2023/08/02 04:45:10;;;;;;;3.13;2.17;;;;;;;;;;5033052;28;20411;-69
2023/08/02 04:47:38;;;;;;;3.72;1.90;;;;;;;;;;5033704;28;20050;-69
2023/08/02 04:50:05;;;;;;;3.53;2.20;;;;;;;;;;5032558;28;20308;-68
2023/08/02 04:52:33;;;;;;;3.60;2.42;;;;;;;;;;5033444;28;20582;-68
2023/08/02 04:54:59;;;;;;;3.92;2.20;;;;;;;;;;5033056;28;20045;-69
2023/08/02 04:57:26;;;;;;;3.38;2.40;;;;;;;;;;5032896;28;20045;-69
2023/08/02 04:59:53;;;;;;;2.50;2.20;;;;;;;;;;5032650;28;20075;-68
2023/08/02 05:02:20;;;;;;;4.18;2.42;;;;;;;;;;5033075;28;20045;-69
2023/08/02 05:04:52;;;;;;;3.95;2.50;;;;;;;;;;5032814;28;20522;-69
2023/08/02 05:07:19;;;;;;;3.00;2.40;;;;;;;;;;5032762;28;20049;-69
2023/08/02 05:09:45;;;;;;;4.40;2.22;;;;;;;;;;5032104;28;20045;-69
2023/08/02 05:12:12;;;;;;;3.63;2.20;;;;;;;;;;5032590;28;20052;-69
2023/08/02 05:14:38;;;;;;;3.05;1.98;;;;;;;;;;5033003;28;20132;-69
2023/08/02 05:17:07;;;;;;;3.70;2.42;;;;;;;;;;5032536;28;20056;-69
2023/08/02 05:19:34;;;;;;;3.08;2.05;;;;;;;;;;5032407;28;20519;-69
2023/08/02 05:22:02;;;;;;;2.75;1.85;;;;;;;;;;5032350;28;20474;-69
2023/08/02 05:24:28;;;;;;;3.00;1.63;;;;;;;;;;5032372;28;20050;-69
2023/08/02 05:26:55;;;;;;;2.55;1.70;;;;;;;;;;5032383;28;20092;-69
2023/08/02 05:29:22;;;;;;;2.25;1.50;;;;;;;;;;5032655;28;20045;-69
2023/08/02 05:31:49;;;;;;;3.63;1.55;;;;;;;;;;5031548;28;20115;-70
2023/08/02 05:34:16;;;;;;;2.38;1.20;;;;;;;;;;5032469;28;20414;-69
2023/08/02 05:36:42;;;;;;;2.00;1.42;;;;;;;;;;5032174;28;20422;-70
2023/08/02 05:39:10;;;;;;;2.25;1.60;;;;;;;;;;5032853;28;20048;-68
2023/08/02 05:41:37;;;;;;;1.85;1.30;;;;;;;;;;5037581;28;20060;-70
2023/08/02 05:44:03;;;;;;;1.65;1.20;;;;;;;;;;5027251;28;20045;-69
2023/08/02 05:46:30;;;;;;;1.52;1.10;;;;;;;;;;5024456;28;20504;-70
2023/08/02 05:48:57;;;;;;;1.80;1.15;;;;;;;;;;5030870;28;20067;-69
2023/08/02 05:51:23;;;;;;;1.73;1.30;;;;;;;;;;5029524;28;20045;-69
2023/08/02 05:53:50;;;;;;;1.63;0.90;;;;;;;;;;5030321;28;20132;-69
2023/08/02 05:56:18;;;;;;;1.52;0.90;;;;;;;;;;5030288;28;20042;-70
2023/08/02 05:58:44;;;;;;;1.23;1.00;;;;;;;;;;5031559;28;20433;-69
2023/08/02 06:01:11;;;;;;;2.65;1.00;;;;;;;;;;5029836;28;20041;-68
2023/08/02 06:03:38;;;;;;;1.52;0.85;;;;;;;;;;5029385;28;20048;-70
2023/08/02 06:06:04;;;;;;;1.10;0.80;;;;;;;;;;5019720;28;20133;-68
2023/08/02 06:08:31;;;;;;;2.22;0.85;;;;;;;;;;5031060;28;20460;-70
2023/08/02 06:11:00;;;;;;;1.92;1.40;;;;;;;;;;5029851;28;20049;-68
2023/08/02 06:13:29;;;;;;;1.10;0.75;;;;;;;;;;5030064;28;20045;-70
2023/08/02 06:15:56;;;;;;;1.35;0.63;;;;;;;;;;5028896;28;20530;-68
2023/08/02 06:18:22;;;;;;;0.70;0.70;;;;;;;;;;5030369;28;20053;-69
2023/08/02 06:20:49;;;;;;;1.58;0.57;;;;;;;;;;5030008;28;20116;-70
2023/08/02 06:23:16;;;;;;;1.15;0.55;;;;;;;;;;5030789;28;20077;-69
2023/08/02 06:25:42;;;;;;;1.27;0.70;;;;;;;;;;5029900;28;20049;-68
2023/08/02 06:28:09;;;;;;;0.85;0.70;;;;;;;;;;5028880;28;20051;-69
2023/08/02 06:30:37;;;;;;;0.88;0.60;;;;;;;;;;5027386;28;20056;-69
2023/08/02 06:33:04;;;;;;;2.10;0.65;;;;;;;;;;5025354;28;20046;-69
2023/08/02 06:35:30;;;;;;;2.05;0.73;;;;;;;;;;5027763;28;20132;-69
2023/08/02 06:37:57;;;;;;;1.08;0.60;;;;;;;;;;5029005;28;20124;-69
2023/08/02 06:40:23;;;;;;;0.90;0.70;;;;;;;;;;5029873;28;20045;-68
2023/08/02 06:42:50;;;;;;;1.15;0.70;;;;;;;;;;5032731;28;20050;-69
2023/08/02 06:45:17;;;;;;;0.88;0.88;;;;;;;;;;5022637;28;20050;-68
2023/08/02 06:47:45;;;;;;;1.58;0.80;;;;;;;;;;5030069;28;20052;-69
2023/08/02 06:50:12;;;;;;;0.75;0.73;;;;;;;;;;5028794;28;20052;-70
2023/08/02 06:52:39;;;;;;;0.77;0.60;;;;;;;;;;5030345;28;20068;-69
2023/08/02 06:55:06;;;;;;;0.68;0.60;;;;;;;;;;5029812;28;20235;-68
2023/08/02 06:57:33;;;;;;;0.77;0.55;;;;;;;;;;5029905;28;20561;-69
2023/08/02 06:59:59;;;;;;;1.33;0.50;;;;;;;;;;5030109;28;20075;-68
2023/08/02 07:02:26;;;;;;;0.60;0.60;;;;;;;;;;5019697;28;20045;-69
2023/08/02 07:04:55;;;;;;;1.15;0.45;;;;;;;;;;5042146;28;20051;-68
2023/08/02 07:07:22;;;;;;;1.00;0.40;;;;;;;;;;5032368;28;20042;-69
2023/08/02 07:09:49;;;;;;;2.05;0.50;;;;;;;;;;5029010;28;20509;-68
2023/08/02 07:12:16;;;;;;;0.50;0.50;;;;;;;;;;5029120;28;20072;-69
2023/08/02 07:14:42;;;;;;;1.05;0.63;;;;;;;;;;5021423;28;20068;-68
2023/08/02 07:17:09;;;;;;;0.40;0.40;;;;;;;;;;5021171;28;20123;-70
2023/08/02 07:19:36;;;;;;;0.80;0.40;;;;;;;;;;5018922;28;20045;-69
2023/08/02 07:22:04;;;;;;;0.93;0.60;;;;;;;;;;5034341;28;20126;-69
2023/08/02 07:24:31;;;;;;;1.23;0.50;;;;;;;;;;5029563;28;20114;-68
2023/08/02 07:26:58;;;;;;;0.40;0.40;;;;;;;;;;5023204;28;20545;-69
2023/08/02 07:29:25;;;;;;;0.40;0.40;;;;;;;;;;5026454;28;20050;-69
2023/08/02 07:31:51;;;;;;;0.40;0.40;;;;;;;;;;5021808;28;20046;-70
2023/08/02 07:34:18;;;;;;;0.68;0.50;;;;;;;;;;5020568;28;20042;-67
2023/08/02 07:36:44;;;;;;;0.82;0.40;;;;;;;;;;5029548;28;20486;-67
2023/08/02 07:39:12;;;;;;;0.30;0.30;;;;;;;;;;5029004;28;20502;-68
2023/08/02 07:41:39;;;;;;;0.40;0.40;;;;;;;;;;5029288;28;20418;-66
2023/08/02 07:44:06;;;;;;;0.38;0.30;;;;;;;;;;5028329;28;20051;-67
2023/08/02 07:46:32;;;;;;;0.57;0.30;;;;;;;;;;5028782;28;20483;-68
2023/08/02 07:48:59;;;;;;;0.65;0.30;;;;;;;;;;5020731;28;20406;-66
2023/08/02 07:51:25;;;;;;;0.30;0.30;;;;;;;;;;5013421;28;20801;-67
2023/08/02 07:53:52;;;;;;;0.30;0.30;;;;;;;;;;5025474;28;20037;-66
2023/08/02 07:56:20;;;;;;;1.77;0.47;;;;;;;;;;5028499;28;20049;-67
2023/08/02 07:58:47;;;;;;;0.55;0.32;;;;;;;;;;5029351;28;20116;-67
2023/08/02 08:01:13;;;;;;;0.30;0.30;;;;;;;;;;5026326;28;20129;-66
2023/08/02 08:03:40;;;;;;;0.50;0.50;;;;;;;;;;5015538;28;20134;-67
2023/08/02 08:06:11;;;;;;;0.77;0.30;;;;;;;;;;5018620;28;20046;-67
2023/08/02 08:08:37;;;;;;;0.30;0.30;;;;;;;;;;5032138;28;20050;-66
2023/08/02 08:11:04;;;;;;;1.30;0.52;;;;;;;;;;5028228;28;20053;-66
2023/08/02 08:13:32;;;;;;;0.50;0.50;;;;;;;;;;5029673;28;20565;-68
2023/08/02 08:16:01;;;;;;;0.55;0.40;;;;;;;;;;5028933;28;20044;-67
2023/08/02 08:18:30;;;;;;;0.88;0.52;;;;;;;;;;5025247;28;20050;-67
2023/08/02 08:20:57;;;;;;;0.95;0.30;;;;;;;;;;5052015;28;20045;-67
2023/08/02 08:23:24;;;;;;;0.50;0.40;;;;;;;;;;5043532;28;20057;-67
2023/08/02 08:25:50;;;;;;;1.77;0.50;;;;;;;;;;5032663;28;20049;-67
2023/08/02 08:28:17;;;;;;;0.50;0.43;;;;;;;;;;5033715;28;20041;-68
2023/08/02 08:30:45;;;;;;;1.73;0.50;;;;;;;;;;5032078;28;20041;-67
2023/08/02 08:33:11;;;;;;;1.77;1.40;;;;;;;;;;5029490;28;20038;-67
2023/08/02 08:35:38;;;;;;;3.47;1.40;;;;;;;;;;5029398;28;20041;-67
2023/08/02 08:38:05;;;;;;;0.95;0.73;;;;;;;;;;5052374;28;20512;-67
2023/08/02 08:40:32;;;;;;;2.30;0.80;;;;;;;;;;5047849;28;20045;-67
2023/08/02 08:43:00;;;;;;;1.67;0.88;;;;;;;;;;5016303;28;20506;-68
2023/08/02 08:45:28;;;;;;;2.53;0.68;;;;;;;;;;5033084;28;20049;-67
2023/08/02 08:47:56;;;;;;;0.60;0.50;;;;;;;;;;5027433;28;20045;-67
2023/08/02 08:50:24;;;;;;;0.77;0.52;;;;;;;;;;5031003;28;20051;-67
2023/08/02 08:52:51;;;;;;;0.50;0.50;;;;;;;;;;5032210;28;20041;-67
2023/08/02 08:55:19;;;;;;;0.50;0.50;;;;;;;;;;5031348;28;20056;-66
2023/08/02 08:57:47;;;;;;;1.48;0.57;;;;;;;;;;5031718;28;20675;-67
2023/08/02 09:00:14;;;;;;;0.60;0.50;;;;;;;;;;5030621;28;20100;-66
2023/08/02 09:02:43;;;;;;;0.55;0.55;;;;;;;;;;5032723;28;20046;-66
2023/08/02 09:05:11;;;;;;;1.00;0.70;;;;;;;;;;5030708;28;20411;-66
2023/08/02 09:07:38;;;;;;;1.20;0.50;;;;;;;;;;5032135;28;20501;-67
2023/08/02 09:10:05;;;;;;;0.60;0.60;;;;;;;;;;5020047;28;20049;-67
2023/08/02 09:12:43;;;;;;;1.65;0.50;;;;;;;;;;5026144;28;20056;-66
2023/08/02 09:15:10;;;;;;;0.35;0.35;;;;;;;;;;5032184;28;20049;-67
2023/08/02 09:17:46;;;;;;;0.30;0.30;;;;;;;;;;5031787;28;20607;-68
2023/08/02 09:20:15;;;;;;;1.65;0.40;;;;;;;;;;5031878;28;20095;-67
2023/08/02 09:22:42;;;;;;;0.40;0.40;;;;;;;;;;5026808;28;20067;-66
2023/08/02 09:25:21;;;;;;;0.47;0.30;;;;;;;;;;5031764;28;20131;-67
2023/08/02 09:27:48;;;;;;;1.83;0.43;;;;;;;;;;5028785;28;20521;-67
2023/08/02 09:30:23;;;;;;;0.30;0.30;;;;;;;;;;5018671;28;20081;-67
2023/08/02 09:32:58;;;;;;;0.35;0.20;;;;;;;;;;5022716;28;20041;-68
2023/08/02 09:35:26;;;;;;;0.10;0.10;;;;;;;;;;5031375;28;20474;-68
2023/08/02 09:37:53;;;;;;;0.55;0.30;;;;;;;;;;5031973;28;20650;-67
2023/08/02 09:40:33;;;;;;;0.20;0.20;;;;;;;;;;5020207;28;20132;-67
2023/08/02 09:43:02;;;;;;;0.25;0.22;;;;;;;;;;5017718;28;20136;-67
2023/08/02 09:45:32;;;;;;;0.20;0.20;;;;;;;;;;5029185;28;20064;-67
2023/08/02 09:47:59;;;;;;;0.30;0.30;;;;;;;;;;5024454;28;20037;-67
2023/08/02 09:50:27;;;;;;;0.60;0.38;;;;;;;;;;5025289;28;20053;-67
2023/08/02 09:52:55;;;;;;;0.20;0.20;;;;;;;;;;5024568;28;20132;-67
2023/08/02 09:55:22;;;;;;;2.20;0.40;;;;;;;;;;5030944;28;20049;-67
2023/08/02 09:57:49;;;;;;;0.40;0.40;;;;;;;;;;5030963;28;20147;-68
2023/08/02 10:00:17;;;;;;;0.30;0.30;;;;;;;;;;5026402;28;20049;-67
2023/08/02 10:02:46;;;;;;;0.50;0.20;;;;;;;;;;5043578;22;20045;-81
2023/08/02 10:05:14;;;;;;;0.22;0.22;;;;;;;;;;5059258;28;20411;-82
2023/08/02 10:07:46;;;;;;;0.40;0.30;;;;;;;;;;5056272;28;20045;-82
2023/08/02 10:10:15;;;;;;;0.30;0.30;;;;;;;;;;5058481;28;20073;-82
2023/08/02 10:12:42;;;;;;;0.82;0.32;;;;;;;;;;5062532;28;20088;-81
2023/08/02 10:15:09;;;;;;;0.65;0.40;;;;;;;;;;5055666;28;20158;-84
2023/08/02 10:17:37;;;;;;;1.35;0.50;;;;;;;;;;5059169;28;20389;-84
2023/08/02 10:20:05;;;;;;;0.68;0.40;;;;;;;;;;5059454;28;20045;-84
2023/08/02 10:22:32;;;;;;;0.40;0.40;;;;;;;;;;5060535;28;20385;-85
2023/08/02 10:25:00;;;;;;;0.30;0.20;;;;;;;;;;5060801;28;20125;-84
2023/08/02 10:27:28;;;;;;;0.22;0.22;;;;;;;;;;5057041;28;20408;-85
2023/08/02 10:29:55;;;;;;;0.57;0.30;;;;;;;;;;5059412;28;20041;-84
2023/08/02 10:32:22;;;;;;;0.30;0.30;;;;;;;;;;5060811;28;20048;-84
2023/08/02 10:34:50;;;;;;;0.30;0.20;;;;;;;;;;5065708;28;20051;-84
2023/08/02 10:37:19;;;;;;;0.38;0.32;;;;;;;;;;5063242;28;20108;-82
2023/08/02 10:39:52;;;;;;;0.30;0.30;;;;;;;;;;5063843;28;20051;-82
2023/08/02 10:42:22;;;;;;;0.80;0.40;;;;;;;;;;5061214;28;20049;-81
2023/08/02 10:45:14;;;;;;;0.22;0.20;;;;;;;;;;5056643;28;20057;-82
2023/08/02 10:47:42;;;;;;;0.30;0.30;;;;;;;;;;5050795;28;20567;-83
2023/08/02 10:50:49;;;;;;;0.90;0.20;;;;;;;;;;5062030;28;20052;-83
2023/08/02 10:53:16;;;;;;;0.40;0.40;;;;;;;;;;5051714;28;20064;-79
2023/08/02 10:56:06;;;;;;;0.40;0.40;;;;;;;;;;5064158;28;20053;-82
2023/08/02 10:58:48;;;;;;;1.63;0.30;;;;;;;;;;5062303;28;20424;-79
2023/08/02 11:01:16;;;;;;;0.30;0.30;;;;;;;;;;5063512;28;20053;-81
2023/08/02 11:03:42;;;;;;;0.22;0.22;;;;;;;;;;5057013;28;20045;-83
2023/08/02 11:06:24;;;;;;;0.25;0.20;;;;;;;;;;5059583;28;20530;-83
2023/08/02 11:08:51;;;;;;;0.37;0.37;;;;;;;;;;5051750;28;20054;-82
2023/08/02 11:11:29;;;;;;;1.23;0.50;;;;;;;;;;5059188;28;20052;-82
2023/08/02 11:13:58;;;;;;;0.50;0.45;;;;;;;;;;5063153;28;20662;-82
2023/08/02 11:16:25;;;;;;;0.35;0.35;;;;;;;;;;5062349;28;20519;-83
2023/08/02 11:18:52;;;;;;;0.38;0.38;;;;;;;;;;5063352;28;20057;-82
2023/08/02 11:21:18;;;;;;;0.52;0.45;;;;;;;;;;5061762;28;20141;-80
2023/08/02 11:23:49;;;;;;;1.15;0.40;;;;;;;;;;5061090;28;20125;-80
2023/08/02 11:26:17;;;;;;;0.40;0.40;;;;;;;;;;5054311;28;20084;-81
2023/08/02 11:28:47;;;;;;;0.30;0.30;;;;;;;;;;5058820;28;20597;-81
2023/08/02 11:31:16;;;;;;;0.65;0.50;;;;;;;;;;5063743;28;20079;-81
2023/08/02 11:33:43;;;;;;;2.17;0.50;;;;;;;;;;5058904;28;20102;-83
2023/08/02 11:36:10;;;;;;;0.65;0.63;;;;;;;;;;5054076;28;20071;-82
2023/08/02 11:38:37;;;;;;;1.38;0.90;;;;;;;;;;5056379;28;20144;-80
2023/08/02 11:41:15;;;;;;;0.98;0.47;;;;;;;;;;5056906;28;20041;-81
2023/08/02 11:43:42;;;;;;;1.05;0.55;;;;;;;;;;5066600;28;20095;-82
2023/08/02 11:46:18;;;;;;;1.38;0.70;;;;;;;;;;5064294;28;20084;-82
2023/08/02 11:48:45;;;;;;;0.73;0.73;;;;;;;;;;5064429;28;20069;-83
2023/08/02 11:51:13;;;;;;;1.20;0.60;;;;;;;;;;5066068;28;20100;-82
2023/08/02 11:53:49;;;;;;;0.60;0.60;;;;;;;;;;5059221;28;20049;-82
2023/08/02 11:56:16;;;;;;;0.60;0.60;;;;;;;;;;5054357;28;20056;-85
2023/08/02 11:58:44;;;;;;;1.90;0.60;;;;;;;;;;5043798;28;20053;-83
2023/08/02 12:01:12;;;;;;;0.60;0.60;;;;;;;;;;5055347;28;20048;-81
2023/08/02 12:03:52;;;;;;;1.05;0.68;;;;;;;;;;5060691;28;20049;-81
2023/08/02 12:06:19;;;;;;;1.95;0.60;;;;;;;;;;5058330;28;20063;-80
2023/08/02 12:08:52;;;;;;;0.60;0.60;;;;;;;;;;5053142;28;20045;-80
2023/08/02 12:11:19;;;;;;;0.60;0.60;;;;;;;;;;5060006;28;20049;-80
2023/08/02 12:13:46;;;;;;;0.55;0.55;;;;;;;;;;5058539;28;20038;-81
2023/08/02 12:16:13;;;;;;;0.80;0.60;;;;;;;;;;5057483;28;20045;-82
2023/08/02 12:18:52;;;;;;;0.55;0.40;;;;;;;;;;5060386;28;20049;-80
2023/08/02 12:21:19;;;;;;;1.08;0.60;;;;;;;;;;5060513;28;20059;-80
2023/08/02 12:23:46;;;;;;;0.75;0.60;;;;;;;;;;5055532;28;20720;-80
2023/08/02 12:26:13;;;;;;;1.20;0.50;;;;;;;;;;5048863;28;20088;-76
2023/08/02 12:28:44;;;;;;;0.40;0.40;;;;;;;;;;5050369;28;20428;-77
2023/08/02 12:31:11;;;;;;;0.90;0.50;;;;;;;;;;5048965;28;20045;-77
2023/08/02 12:33:37;;;;;;;1.30;0.50;;;;;;;;;;5051023;28;20049;-76
2023/08/02 12:36:06;;;;;;;0.63;0.30;;;;;;;;;;5050492;28;20408;-76
2023/08/02 12:38:33;;;;;;;0.90;0.38;;;;;;;;;;5051053;28;20070;-79
2023/08/02 12:41:03;;;;;;;0.40;0.40;;;;;;;;;;5050535;28;20103;-78
2023/08/02 12:43:29;;;;;;;0.20;0.20;;;;;;;;;;5051362;28;20080;-77
2023/08/02 12:45:56;;;;;;;0.30;0.30;;;;;;;;;;5050594;28;20059;-78
2023/08/02 12:48:23;;;;;;;0.30;0.30;;;;;;;;;;5051042;28;20107;-77
2023/08/02 12:50:49;;;;;;;2.78;0.43;;;;;;;;;;5050758;28;20055;-77
2023/08/02 12:53:17;;;;;;;0.40;0.40;;;;;;;;;;5050958;28;20051;-78
2023/08/02 12:55:44;;;;;;;0.40;0.40;;;;;;;;;;5050707;28;20059;-77
2023/08/02 12:58:11;;;;;;;1.08;0.50;;;;;;;;;;5051437;28;20049;-77
2023/08/02 13:00:38;;;;;;;2.55;0.70;;;;;;;;;;5050719;28;20049;-78
2023/08/02 13:03:04;;;;;;;0.65;0.47;;;;;;;;;;5054307;28;20072;-79
2023/08/02 13:05:31;;;;;;;0.88;0.50;;;;;;;;;;5054633;28;20049;-77
2023/08/02 13:07:57;;;;;;;1.80;0.70;;;;;;;;;;5053940;28;20512;-79
2023/08/02 13:10:27;;;;;;;0.60;0.50;;;;;;;;;;5054127;28;20053;-76
2023/08/02 13:12:54;;;;;;;0.63;0.50;;;;;;;;;;5054313;28;20055;-78
2023/08/02 13:15:20;;;;;;;0.70;0.70;;;;;;;;;;5055595;28;20496;-77
2023/08/02 13:17:48;;;;;;;0.80;0.80;;;;;;;;;;5055129;28;20044;-75
2023/08/02 13:20:15;;;;;;;1.25;1.15;;;;;;;;;;5053737;28;20049;-77
2023/08/02 13:22:42;;;;;;;0.80;0.80;;;;;;;;;;5054084;28;20052;-75
2023/08/02 13:25:09;;;;;;;1.00;0.90;;;;;;;;;;5054172;28;20061;-78
2023/08/02 13:27:37;;;;;;;1.00;0.90;;;;;;;;;;5053788;28;20059;-76
2023/08/02 13:30:05;;;;;;;0.70;0.70;;;;;;;;;;5053694;28;20045;-77
2023/08/02 13:32:34;;;;;;;1.33;0.80;;;;;;;;;;5053799;28;20052;-76
2023/08/02 13:35:00;;;;;;;2.10;0.73;;;;;;;;;;5053800;28;20078;-78
2023/08/02 13:37:27;;;;;;;1.73;0.82;;;;;;;;;;5053520;28;20045;-77
2023/08/02 13:39:55;;;;;;;0.85;0.70;;;;;;;;;;5053884;28;20079;-77
2023/08/02 13:42:23;;;;;;;0.70;0.70;;;;;;;;;;5053770;28;20492;-76
2023/08/02 13:44:51;;;;;;;0.70;0.70;;;;;;;;;;5052903;28;20504;-77
2023/08/02 13:47:18;;;;;;;1.45;0.82;;;;;;;;;;5053600;28;20045;-78
2023/08/02 13:49:44;;;;;;;0.90;0.60;;;;;;;;;;5053000;28;20401;-76
2023/08/02 13:52:11;;;;;;;1.95;0.70;;;;;;;;;;5053453;28;20052;-78
2023/08/02 13:54:38;;;;;;;0.70;0.60;;;;;;;;;;5053077;28;20045;-78
2023/08/02 13:57:05;;;;;;;1.95;0.70;;;;;;;;;;5053281;28;20051;-77
2023/08/02 13:59:31;;;;;;;1.83;0.80;;;;;;;;;;5052539;28;20052;-77
2023/08/02 14:01:59;;;;;;;0.90;0.80;;;;;;;;;;5053505;28;20045;-77
2023/08/02 14:04:28;;;;;;;0.70;0.70;;;;;;;;;;5052941;28;20067;-77
2023/08/02 14:06:55;;;;;;;1.77;0.70;;;;;;;;;;5052830;28;20052;-79
2023/08/02 14:09:21;;;;;;;0.50;0.50;;;;;;;;;;5052414;28;20052;-78
2023/08/02 14:11:48;;;;;;;0.80;0.63;;;;;;;;;;5052963;28;20124;-77
2023/08/02 14:14:15;;;;;;;0.63;0.63;;;;;;;;;;5052129;28;20052;-77
2023/08/02 14:16:41;;;;;;;0.60;0.60;;;;;;;;;;5052555;28;20049;-77
2023/08/02 14:19:09;;;;;;;2.10;0.60;;;;;;;;;;5052893;28;20044;-78
2023/08/02 14:21:35;;;;;;;0.50;0.50;;;;;;;;;;5052214;28;20055;-78
2023/08/02 14:24:02;;;;;;;1.55;0.60;;;;;;;;;;5052361;28;20052;-78
2023/08/02 14:26:29;;;;;;;0.70;0.70;;;;;;;;;;5052378;28;20055;-77
2023/08/02 14:28:55;;;;;;;1.55;0.60;;;;;;;;;;5053259;28;20407;-76
2023/08/02 14:31:22;;;;;;;0.35;0.35;;;;;;;;;;5052341;28;20040;-78
2023/08/02 14:33:48;;;;;;;0.63;0.52;;;;;;;;;;5055578;28;20423;-79
2023/08/02 14:36:16;;;;;;;0.82;0.50;;;;;;;;;;5055145;28;20044;-78
2023/08/02 14:38:43;;;;;;;1.73;0.80;;;;;;;;;;5055257;28;20055;-78
2023/08/02 14:41:09;;;;;;;0.82;0.60;;;;;;;;;;5055048;28;20507;-79
2023/08/02 14:43:36;;;;;;;0.40;0.40;;;;;;;;;;5055758;28;20067;-79
2023/08/02 14:46:03;;;;;;;0.55;0.52;;;;;;;;;;5055450;28;20057;-79